Time;durP1;ratioP1;P1;durP2;ratioP2;P2;SDS_P1;SDS_P2;PMS_P1;PMS_P2;Temp;Humidity;BMP_temperature;BMP_pressure;BME280_temperature;BME280_humidity;BME280_pressure;Samples;Min_cycle;Max_cycle;Signal;HPM_P1;HPM_P2
2023/05/03 04:17:54;;;;;;;25.60;18.47;;;;;;;12.04;100.00;100619.91;5526299;31;2456539;-88
2023/05/03 04:21:01;;;;;;;27.33;19.90;;;;;;;12.02;100.00;100615.56;5583131;32;33589;-87
2023/05/03 04:24:16;;;;;;;22.05;17.55;;;;;;;12.05;100.00;100618.94;5581122;32;33700;-87
2023/05/03 04:27:25;;;;;;;22.45;17.33;;;;;;;12.07;100.00;100629.50;5582095;31;34018;-87
2023/05/03 04:30:34;;;;;;;19.27;16.17;;;;;;;12.10;100.00;100626.69;5581932;31;34126;-87
2023/05/03 04:33:41;;;;;;;20.00;16.08;;;;;;;12.13;100.00;100632.69;5581844;31;34259;-88
2023/05/03 04:36:49;;;;;;;17.42;15.40;;;;;;;12.13;100.00;100632.69;5581919;32;33644;-88
2023/05/03 04:39:57;;;;;;;17.55;14.98;;;;;;;12.17;100.00;100635.22;5582260;31;33739;-85
2023/05/03 04:43:05;;;;;;;17.15;14.20;;;;;;;12.25;100.00;100639.19;5583446;32;33730;-85
2023/05/03 04:46:16;;;;;;;15.68;13.15;;;;;;;12.32;100.00;100633.53;5587228;32;34273;-85
2023/05/03 04:49:24;;;;;;;14.73;13.05;;;;;;;12.40;100.00;100640.19;5586550;32;33456;-87
2023/05/03 04:52:32;;;;;;;19.25;12.95;;;;;;;12.45;100.00;100639.06;5582667;31;34427;-86
2023/05/03 04:55:41;;;;;;;16.35;11.55;;;;;;;12.53;100.00;100640.37;5582549;31;34318;-86
2023/05/03 04:58:54;;;;;;;22.10;12.27;;;;;;;12.42;100.00;100641.91;5582903;31;33556;-85
2023/05/03 05:01:59;;;;;;;14.75;12.07;;;;;;;12.41;100.00;100643.69;5585691;31;34684;-85
2023/05/03 05:05:08;;;;;;;13.02;10.73;;;;;;;12.57;100.00;100654.34;5583972;32;33598;-84
2023/05/03 05:08:16;;;;;;;12.07;10.75;;;;;;;12.68;100.00;100659.12;5581969;31;33865;-83
2023/05/03 05:11:23;;;;;;;12.88;10.82;;;;;;;12.78;100.00;100643.50;5581355;32;34478;-84
2023/05/03 05:14:32;;;;;;;11.20;10.07;;;;;;;12.86;100.00;100657.25;5585308;31;33721;-89
2023/05/03 05:17:39;;;;;;;12.35;10.23;;;;;;;12.94;100.00;100648.84;5581115;32;34497;-89
2023/05/03 05:20:45;;;;;;;12.75;9.65;;;;;;;13.00;100.00;100656.50;5566493;32;34664;-84
2023/05/03 05:23:52;;;;;;;12.10;10.65;;;;;;;13.09;100.00;100655.13;5583709;31;34002;-85
2023/05/03 05:26:57;;;;;;;12.60;10.40;;;;;;;13.12;100.00;100649.59;5584304;32;33772;-84
2023/05/03 05:30:07;;;;;;;11.32;10.13;;;;;;;13.49;100.00;100646.69;5571164;32;34068;-85
2023/05/03 05:33:16;;;;;;;11.68;9.95;;;;;;;13.58;100.00;100650.66;5571539;32;33988;-84
2023/05/03 05:36:26;;;;;;;12.35;10.07;;;;;;;13.87;100.00;100658.72;5569619;32;34564;-84
2023/05/03 05:39:32;;;;;;;10.75;8.95;;;;;;;13.95;100.00;100652.94;5566484;32;33896;-85
2023/05/03 05:42:38;;;;;;;11.73;10.32;;;;;;;14.19;100.00;100650.63;5573067;32;34883;-84
2023/05/03 05:45:41;;;;;;;12.00;9.85;;;;;;;14.44;100.00;100654.47;5571836;32;34389;-84
2023/05/03 05:48:46;;;;;;;11.27;8.95;;;;;;;14.82;100.00;100667.25;5569728;32;34462;-84
2023/05/03 05:51:55;;;;;;;13.30;9.73;;;;;;;15.52;100.00;100666.41;5571644;32;33938;-85
2023/05/03 05:55:03;;;;;;;9.80;8.80;;;;;;;15.81;100.00;100661.81;5564529;31;33809;-85
2023/05/03 05:58:10;;;;;;;10.02;8.77;;;;;;;16.19;100.00;100673.53;5560434;31;33931;-85
2023/05/03 06:01:16;;;;;;;11.02;9.05;;;;;;;16.36;100.00;100684.91;5564408;31;34223;-85
2023/05/03 06:04:19;;;;;;;10.13;9.13;;;;;;;16.16;100.00;100690.66;5563204;32;34229;-85
2023/05/03 06:07:24;;;;;;;12.13;8.60;;;;;;;15.69;100.00;100698.22;5576498;31;34147;-84
2023/05/03 06:10:32;;;;;;;9.93;8.85;;;;;;;15.75;100.00;100697.81;5575040;31;33818;-84
2023/05/03 06:13:39;;;;;;;10.85;8.88;;;;;;;15.55;100.00;100701.84;5569786;31;33799;-86
2023/05/03 06:16:44;;;;;;;10.10;9.07;;;;;;;15.46;100.00;100705.09;5566448;31;33834;-86
2023/05/03 06:19:49;;;;;;;10.80;8.52;;;;;;;15.43;100.00;100711.50;5580642;31;34777;-85
2023/05/03 06:22:55;;;;;;;10.00;8.93;;;;;;;15.48;100.00;100719.22;5575806;31;35148;-87
2023/05/03 06:26:02;;;;;;;12.02;8.70;;;;;;;15.73;100.00;100722.94;5572373;31;33613;-87
2023/05/03 06:29:11;;;;;;;8.82;7.93;;;;;;;15.51;100.00;100716.34;5565353;31;34647;-89
2023/05/03 06:32:15;;;;;;;10.00;8.23;;;;;;;15.44;100.00;100718.56;5567147;31;34015;-91
2023/05/03 06:35:21;;;;;;;10.50;8.88;;;;;;;15.54;100.00;100729.50;5564157;31;33804;-91
2023/05/03 06:38:29;;;;;;;12.23;8.20;;;;;;;15.57;100.00;100737.34;5569468;31;33928;-87
2023/05/03 06:41:36;;;;;;;9.57;8.68;;;;;;;15.57;100.00;100733.81;5562891;31;33883;-84
2023/05/03 06:44:42;;;;;;;9.43;8.52;;;;;;;15.58;100.00;100739.06;5567650;31;34617;-85
2023/05/03 06:47:49;;;;;;;10.77;8.40;;;;;;;15.82;100.00;100732.19;5566684;31;32769;-86
2023/05/03 06:50:57;;;;;;;9.52;8.68;;;;;;;16.29;100.00;100738.00;5570561;31;34066;-87
2023/05/03 06:54:08;;;;;;;9.70;8.10;;;;;;;16.79;100.00;100737.31;5562162;31;34015;-86
2023/05/03 06:57:16;;;;;;;8.05;7.18;;;;;;;17.09;100.00;100738.78;5570907;32;33921;-87
2023/05/03 07:00:24;;;;;;;9.57;7.78;;;;;;;17.26;100.00;100739.41;5568111;31;33834;-88
2023/05/03 07:03:33;;;;;;;8.90;7.12;;;;;;;17.65;100.00;100743.66;5569545;31;33475;-89
2023/05/03 07:06:40;;;;;;;10.97;7.63;;;;;;;17.98;100.00;100743.09;5571594;31;33745;-87
2023/05/03 07:09:59;;;;;;;11.68;6.55;;;;;;;18.92;100.00;100735.03;5568502;31;34117;-88
2023/05/03 07:13:04;;;;;;;7.53;6.65;;;;;;;18.92;100.00;100736.84;5566730;31;33828;-87
2023/05/03 07:16:09;;;;;;;10.77;6.35;;;;;;;19.80;100.00;100736.97;5568727;31;34527;-87
2023/05/03 07:19:17;;;;;;;7.00;6.30;;;;;;;19.92;100.00;100741.31;5573062;31;33657;-87
2023/05/03 07:22:24;;;;;;;10.40;6.93;;;;;;;19.77;100.00;100742.63;5572647;31;33949;-86
2023/05/03 07:25:32;;;;;;;12.90;7.25;;;;;;;19.12;100.00;100746.03;5565821;31;33826;-87
2023/05/03 07:28:36;;;;;;;12.45;6.70;;;;;;;19.34;100.00;100739.78;5575184;31;34653;-85
2023/05/03 07:31:43;;;;;;;11.98;6.05;;;;;;;19.47;100.00;100733.41;5569370;32;33480;-87
2023/05/03 07:34:47;;;;;;;11.88;6.40;;;;;;;19.55;100.00;100739.00;5571853;32;33981;-86
2023/05/03 07:37:52;;;;;;;12.68;5.85;;;;;;;19.29;100.00;100746.50;5574247;32;33920;-86
2023/05/03 07:40:59;;;;;;;6.85;6.10;;;;;;;19.98;100.00;100748.06;5571981;32;34756;-90
2023/05/03 07:44:06;;;;;;;8.57;5.90;;;;;;;19.97;100.00;100749.06;5586983;31;33598;-91
2023/05/03 07:47:13;;;;;;;9.13;5.87;;;;;;;19.70;100.00;100746.81;5589968;31;33925;-85
2023/05/03 07:50:20;;;;;;;7.57;6.25;;;;;;;19.77;100.00;100748.84;5575125;31;34017;-86
2023/05/03 07:53:26;;;;;;;10.18;6.35;;;;;;;20.28;100.00;100751.00;5570246;32;33884;-86
2023/05/03 07:56:35;;;;;;;7.18;5.30;;;;;;;20.17;100.00;100755.44;5571648;32;33820;-87
2023/05/03 07:59:39;;;;;;;9.23;5.82;;;;;;;19.17;100.00;100757.28;5573521;31;33719;-86
2023/05/03 08:02:45;;;;;;;9.23;6.07;;;;;;;19.36;100.00;100756.63;5570461;32;34790;-85
2023/05/03 08:05:51;;;;;;;14.85;6.10;;;;;;;19.58;100.00;100756.72;5573568;31;33914;-85
2023/05/03 08:08:54;;;;;;;6.45;5.82;;;;;;;19.67;100.00;100756.81;5581837;31;33861;-87
2023/05/03 08:11:57;;;;;;;6.97;5.80;;;;;;;20.32;100.00;100757.84;5564839;31;34058;-85
2023/05/03 08:15:00;;;;;;;6.50;5.78;;;;;;;20.95;100.00;100772.25;5569375;31;33456;-85
2023/05/03 08:18:06;;;;;;;7.75;5.90;;;;;;;20.92;99.94;100761.75;5562642;31;34655;-85
2023/05/03 08:21:12;;;;;;;9.30;6.30;;;;;;;21.04;100.00;100770.59;5570926;31;33887;-85
2023/05/03 08:24:18;;;;;;;6.47;5.80;;;;;;;21.38;100.00;100770.28;5567187;32;33849;-85
2023/05/03 08:27:27;;;;;;;8.10;5.97;;;;;;;21.56;97.37;100766.94;5568566;31;33879;-85
2023/05/03 08:30:31;;;;;;;8.45;6.00;;;;;;;21.47;100.00;100766.75;5567310;31;34155;-85
2023/05/03 08:33:36;;;;;;;6.30;5.70;;;;;;;21.40;94.73;100765.59;5586254;31;34011;-85
2023/05/03 08:36:41;;;;;;;10.32;6.18;;;;;;;21.76;94.44;100773.22;5595439;31;35173;-85
2023/05/03 08:39:46;;;;;;;6.43;5.68;;;;;;;20.71;94.89;100767.97;5591222;31;34188;-85
2023/05/03 08:42:54;;;;;;;12.98;6.10;;;;;;;21.38;93.99;100767.59;5576550;31;36357;-85
2023/05/03 08:46:01;;;;;;;7.43;5.95;;;;;;;21.20;96.07;100762.84;5572218;31;34179;-86
2023/05/03 08:49:06;;;;;;;6.87;5.93;;;;;;;21.45;93.79;100771.44;5570759;32;33849;-85
2023/05/03 08:52:17;;;;;;;7.22;5.97;;;;;;;21.66;93.53;100767.78;5569784;32;34692;-86
2023/05/03 08:55:23;;;;;;;11.15;5.75;;;;;;;21.90;95.92;100774.66;5572149;31;33969;-85
2023/05/03 08:58:28;;;;;;;9.63;5.80;;;;;;;22.31;88.25;100771.81;5568562;31;34829;-85
2023/05/03 09:01:36;;;;;;;7.68;5.53;;;;;;;22.57;87.37;100774.81;5567254;31;33691;-85
2023/05/03 09:04:42;;;;;;;7.93;5.50;;;;;;;22.23;86.71;100772.56;5579943;31;34099;-89
2023/05/03 09:08:10;;;;;;;8.43;5.50;;;;;;;22.27;90.44;100773.13;5576200;31;33768;-86
2023/05/03 09:11:23;;;;;;;9.45;5.22;;;;;;;22.33;86.29;100773.38;5564653;31;33918;-85
2023/05/03 09:14:28;;;;;;;5.68;5.18;;;;;;;22.15;83.35;100769.69;5571083;31;34059;-85
2023/05/03 09:17:37;;;;;;;6.78;5.62;;;;;;;22.11;86.23;100774.53;5568570;31;33852;-85
2023/05/03 09:20:52;;;;;;;10.60;5.40;;;;;;;22.43;84.96;100770.66;5554487;32;33847;-85
2023/05/03 09:23:58;;;;;;;9.40;5.75;;;;;;;22.02;85.02;100772.72;5556215;31;34503;-84
2023/05/03 09:27:20;;;;;;;7.62;5.97;;;;;;;22.59;84.37;100774.66;5555655;32;34451;-84
2023/05/03 09:30:24;;;;;;;6.90;6.18;;;;;;;22.17;81.96;100776.66;5561967;32;33849;-85
2023/05/03 09:33:29;;;;;;;6.70;5.62;;;;;;;21.79;86.44;100775.66;5560135;32;35381;-84
2023/05/03 09:36:48;;;;;;;9.40;6.62;;;;;;;22.58;82.40;100773.81;5568894;32;33990;-85
2023/05/03 09:40:06;;;;;;;7.05;5.80;;;;;;;23.37;79.20;100772.69;5557945;32;33746;-86
2023/05/03 09:43:15;;;;;;;10.07;6.10;;;;;;;24.01;74.35;100771.81;5556756;32;35111;-84
2023/05/03 09:46:26;;;;;;;8.27;5.85;;;;;;;23.68;76.47;100775.91;5563188;32;33983;-84
2023/05/03 09:49:32;;;;;;;5.93;5.32;;;;;;;24.52;74.93;100771.25;5563351;32;34050;-88
2023/05/03 09:52:37;;;;;;;10.20;5.80;;;;;;;24.72;73.17;100766.47;5569375;32;32763;-88
2023/05/03 09:55:42;;;;;;;10.27;6.18;;;;;;;23.43;76.14;100772.06;5561329;32;32459;-85
2023/05/03 09:58:50;;;;;;;10.02;5.60;;;;;;;24.01;76.56;100769.13;5561897;32;33844;-85
2023/05/03 10:01:59;;;;;;;6.90;5.62;;;;;;;23.06;80.34;100771.09;5571496;32;34627;-84
2023/05/03 10:05:07;;;;;;;8.10;5.68;;;;;;;23.28;79.18;100769.84;5559412;31;33726;-86
2023/05/03 10:08:23;;;;;;;8.20;6.00;;;;;;;22.78;78.88;100765.63;5550607;32;34590;-85
2023/05/03 10:11:32;;;;;;;7.03;6.20;;;;;;;22.67;78.81;100758.56;5562627;32;34416;-85
2023/05/03 10:14:40;;;;;;;7.03;6.30;;;;;;;22.91;78.76;100759.91;5565558;31;33535;-84
2023/05/03 10:17:45;;;;;;;7.10;6.40;;;;;;;22.22;86.58;100762.72;5569451;31;32571;-84
2023/05/03 10:21:01;;;;;;;10.38;6.62;;;;;;;21.53;83.73;100762.66;5568439;32;34823;-84
2023/05/03 10:24:15;;;;;;;9.27;6.90;;;;;;;21.75;84.06;100752.63;5565594;32;34122;-84
2023/05/03 10:27:21;;;;;;;9.85;7.50;;;;;;;21.79;81.46;100757.59;5563442;31;34693;-84
2023/05/03 10:30:34;;;;;;;9.60;7.53;;;;;;;21.77;83.71;100758.75;5571680;32;34065;-84
2023/05/03 10:33:43;;;;;;;9.50;7.40;;;;;;;21.70;81.67;100758.47;5557264;32;33507;-84
2023/05/03 10:36:52;;;;;;;9.18;6.60;;;;;;;21.78;80.91;100763.16;5572153;32;34583;-84
2023/05/03 10:40:12;;;;;;;6.43;5.62;;;;;;;22.05;81.61;100753.50;5570079;32;33808;-84
2023/05/03 10:43:31;;;;;;;9.48;6.00;;;;;;;21.39;80.20;100763.91;5569226;32;33906;-88
2023/05/03 10:46:38;;;;;;;6.07;5.57;;;;;;;20.54;85.28;100762.22;5565505;32;33520;-85
2023/05/03 10:49:45;;;;;;;8.43;5.47;;;;;;;21.00;84.48;100762.78;5573104;32;34480;-85
2023/05/03 10:52:52;;;;;;;7.28;6.18;;;;;;;20.94;88.21;100754.38;5570606;31;33884;-85
2023/05/03 10:56:14;;;;;;;7.05;6.15;;;;;;;21.11;86.70;100742.09;5565881;31;34685;-85
2023/05/03 10:59:19;;;;;;;6.53;5.82;;;;;;;21.41;85.32;100745.72;5573805;32;33974;-85
2023/05/03 11:02:31;;;;;;;7.30;6.05;;;;;;;21.27;84.99;100739.72;5572987;32;34152;-84
2023/05/03 11:05:37;;;;;;;7.65;6.40;;;;;;;20.59;85.30;100746.53;5568066;31;34653;-85
2023/05/03 11:08:47;;;;;;;10.55;6.57;;;;;;;20.39;88.72;100744.66;5563590;31;33722;-86
2023/05/03 11:11:52;;;;;;;9.23;6.32;;;;;;;20.45;87.60;100742.31;5566199;31;34271;-85
2023/05/03 11:14:56;;;;;;;8.43;6.15;;;;;;;20.42;87.37;100739.03;5562335;32;33812;-85
2023/05/03 11:17:59;;;;;;;7.35;6.50;;;;;;;20.50;87.84;100743.75;5565261;32;34215;-84
2023/05/03 11:21:05;;;;;;;7.78;6.57;;;;;;;20.69;87.07;100743.88;5568271;32;35260;-86
2023/05/03 11:24:10;;;;;;;7.37;6.35;;;;;;;20.85;85.78;100748.81;5568975;32;34378;-86
2023/05/03 11:27:23;;;;;;;7.90;6.35;;;;;;;20.86;87.96;100746.94;5566506;32;34251;-85
2023/05/03 11:30:29;;;;;;;7.18;6.45;;;;;;;20.78;83.48;100752.13;5567866;32;36188;-85
2023/05/03 11:33:35;;;;;;;7.65;6.18;;;;;;;20.50;87.11;100749.13;5559700;31;34630;-86
2023/05/03 11:36:40;;;;;;;6.97;5.75;;;;;;;20.00;90.21;100756.00;5558676;32;33855;-85
2023/05/03 11:39:47;;;;;;;9.88;6.07;;;;;;;20.31;88.99;100746.19;5564494;31;34147;-85
2023/05/03 11:42:55;;;;;;;10.55;6.12;;;;;;;20.05;90.77;100751.09;5579930;31;34536;-85
2023/05/03 11:46:01;;;;;;;6.80;6.10;;;;;;;20.05;90.54;100743.88;5560179;31;34131;-85
2023/05/03 11:49:08;;;;;;;7.37;6.57;;;;;;;20.02;91.69;100740.59;5560793;31;34081;-89
2023/05/03 11:52:13;;;;;;;7.75;5.95;;;;;;;;;;5575890;31;33684;-86
2023/05/03 11:55:20;;;;;;;6.80;6.05;;;;;;;20.13;90.44;100748.63;5575725;32;34235;-86
2023/05/03 11:58:25;;;;;;;8.32;6.40;;;;;;;19.92;93.00;100738.63;5570345;32;34203;-86
2023/05/03 12:01:30;;;;;;;6.70;6.10;;;;;;;19.70;93.58;100741.41;5553895;32;35216;-86
2023/05/03 12:04:39;;;;;;;9.65;5.87;;;;;;;19.71;92.62;100737.75;5573942;32;34537;-85
2023/05/03 12:07:45;;;;;;;7.50;6.05;;;;;;;19.87;91.55;100734.63;5569875;32;33443;-85
2023/05/03 12:10:57;;;;;;;6.85;6.18;;;;;;;19.53;95.42;100732.91;5569255;32;34168;-85
2023/05/03 12:14:04;;;;;;;7.10;5.80;;;;;;;19.26;96.32;100737.72;5569869;32;34107;-85
2023/05/03 12:17:08;;;;;;;6.68;6.07;;;;;;;19.41;95.43;100733.91;5566392;32;34010;-86
2023/05/03 12:20:22;;;;;;;8.65;5.97;;;;;;;19.46;97.29;100735.22;5572704;32;34262;-85
2023/05/03 12:23:30;;;;;;;6.00;5.40;;;;;;;19.57;97.05;100733.50;5570588;32;34011;-85
2023/05/03 12:26:37;;;;;;;7.95;5.70;;;;;;;19.33;97.89;100734.53;5575494;31;34109;-85
2023/05/03 12:29:45;;;;;;;7.12;5.68;;;;;;;19.38;96.60;100729.63;5570588;32;33819;-85
2023/05/03 12:32:50;;;;;;;7.60;5.95;;;;;;;19.65;96.15;100723.81;5572309;32;35330;-85
2023/05/03 12:35:55;;;;;;;8.75;6.03;;;;;;;20.00;96.67;100721.87;5568215;32;34653;-86
2023/05/03 12:39:01;;;;;;;7.72;6.50;;;;;;;20.06;95.59;100718.66;5581769;31;34434;-86
2023/05/03 12:42:06;;;;;;;7.60;6.85;;;;;;;20.32;92.14;100723.66;5557872;32;33779;-86
2023/05/03 12:45:15;;;;;;;6.62;6.03;;;;;;;20.19;90.34;100715.78;5566026;32;33887;-85
2023/05/03 12:48:24;;;;;;;7.47;6.68;;;;;;;19.80;93.17;100712.72;5567920;32;33450;-86
2023/05/03 12:51:31;;;;;;;7.03;5.95;;;;;;;19.79;92.88;100711.03;5567903;31;33879;-86
2023/05/03 12:54:37;;;;;;;5.82;5.32;;;;;;;19.64;92.72;100710.47;5565875;31;33416;-86
2023/05/03 12:57:44;;;;;;;10.07;6.40;;;;;;;19.87;91.59;100711.22;5565676;31;33609;-87
2023/05/03 13:00:50;;;;;;;8.05;6.30;;;;;;;19.68;91.57;100703.88;5569167;32;33887;-90
2023/05/03 13:04:15;;;;;;;7.43;6.05;;;;;;;19.59;95.17;100710.88;5568874;31;33472;-87
2023/05/03 13:07:42;;;;;;;7.57;5.90;;;;;;;19.70;96.88;100704.56;5571002;32;33787;-86
2023/05/03 13:10:49;;;;;;;6.72;6.03;;;;;;;19.41;96.38;100704.31;5570405;32;35088;-86
2023/05/03 13:13:55;;;;;;;8.32;5.90;;;;;;;19.45;95.69;100700.41;5570891;32;34099;-85
2023/05/03 13:17:01;;;;;;;9.32;5.78;;;;;;;19.59;100.00;100696.53;5570294;31;33695;-86
2023/05/03 13:20:09;;;;;;;10.48;6.35;;;;;;;19.04;100.00;100700.09;5566570;32;34484;-86
2023/05/03 13:23:14;;;;;;;7.95;6.47;;;;;;;19.03;100.00;100703.75;5569912;31;33589;-86
2023/05/03 13:26:17;;;;;;;7.30;6.60;;;;;;;18.79;100.00;100694.81;5577013;32;34786;-84
2023/05/03 13:29:22;;;;;;;7.85;6.32;;;;;;;18.85;100.00;100696.16;5579275;32;34163;-83
2023/05/03 13:32:28;;;;;;;7.35;5.45;;;;;;;18.96;100.00;100693.47;5573850;32;34338;-85
2023/05/03 13:35:33;;;;;;;7.57;6.05;;;;;;;19.00;100.00;100691.37;5570243;32;34496;-84
2023/05/03 13:38:40;;;;;;;6.85;6.07;;;;;;;19.28;100.00;100689.19;5568837;32;34547;-84
2023/05/03 13:41:46;;;;;;;6.80;6.10;;;;;;;19.62;100.00;100688.22;5564489;31;34076;-84
2023/05/03 13:44:53;;;;;;;7.75;5.80;;;;;;;19.78;100.00;100687.78;5559216;32;33724;-84
2023/05/03 13:48:00;;;;;;;8.35;6.30;;;;;;;19.73;100.00;100688.19;5571103;32;34603;-86
2023/05/03 13:51:23;;;;;;;8.35;6.35;;;;;;;19.59;100.00;100683.09;5570687;32;34379;-84
2023/05/03 13:54:29;;;;;;;7.93;5.60;;;;;;;19.45;99.31;100682.41;5569921;32;34012;-85
2023/05/03 13:57:35;;;;;;;6.70;5.70;;;;;;;19.78;100.00;100690.50;5570273;32;34494;-90
2023/05/03 14:00:40;;;;;;;12.00;6.07;;;;;;;19.70;100.00;100682.22;5552804;32;33630;-89
2023/05/03 14:03:45;;;;;;;12.32;5.90;;;;;;;19.44;98.69;100679.84;5572575;31;33738;-85
2023/05/03 14:06:52;;;;;;;8.00;5.87;;;;;;;19.38;100.00;100676.69;5572285;31;33882;-85
2023/05/03 14:09:58;;;;;;;7.30;5.62;;;;;;;19.71;97.85;100679.38;5573174;32;34198;-85
2023/05/03 14:13:07;;;;;;;6.75;5.65;;;;;;;19.66;96.33;100679.75;5564947;32;34113;-85
2023/05/03 14:16:17;;;;;;;6.07;5.45;;;;;;;19.67;96.38;100683.31;5563617;31;33891;-85
2023/05/03 14:19:41;;;;;;;7.65;6.03;;;;;;;19.63;97.88;100673.78;5571652;32;34259;-85
2023/05/03 14:22:51;;;;;;;9.10;5.60;;;;;;;19.76;96.35;100679.00;5568761;32;34147;-85
2023/05/03 14:25:59;;;;;;;8.10;5.40;;;;;;;19.96;94.97;100668.41;5575125;32;34073;-84
2023/05/03 14:29:06;;;;;;;7.07;5.57;;;;;;;19.89;94.90;100668.91;5573409;32;33751;-84
2023/05/03 14:32:13;;;;;;;6.43;5.82;;;;;;;20.05;94.83;100673.00;5572423;32;34622;-84
2023/05/03 14:35:19;;;;;;;7.00;6.05;;;;;;;20.10;94.16;100678.00;5571909;32;33850;-84
2023/05/03 14:38:22;;;;;;;6.10;5.43;;;;;;;19.92;91.19;100671.31;5573921;32;33712;-85
2023/05/03 14:41:30;;;;;;;9.45;6.10;;;;;;;19.97;95.02;100671.00;5573700;32;33732;-85
2023/05/03 14:44:36;;;;;;;7.75;6.35;;;;;;;20.00;93.75;100668.03;5575523;32;34826;-84
2023/05/03 14:47:46;;;;;;;8.25;5.68;;;;;;;20.09;93.53;100670.91;5572766;32;33848;-84
2023/05/03 14:50:54;;;;;;;7.40;5.53;;;;;;;19.80;96.36;100675.06;5572182;32;34086;-85
2023/05/03 14:54:03;;;;;;;9.32;5.53;;;;;;;19.58;97.72;100667.94;5571378;32;33529;-85
2023/05/03 14:57:07;;;;;;;8.75;6.10;;;;;;;19.70;94.06;100661.53;5570758;32;33852;-86
2023/05/03 15:00:17;;;;;;;6.55;5.85;;;;;;;19.61;95.61;100668.53;5551948;32;34071;-86
2023/05/03 15:03:25;;;;;;;6.37;5.78;;;;;;;18.83;100.00;100663.19;5568258;32;34858;-90
2023/05/03 15:06:37;;;;;;;8.15;5.80;;;;;;;18.98;100.00;100659.28;5571111;32;33739;-86
2023/05/03 15:09:45;;;;;;;7.22;5.72;;;;;;;18.71;100.00;100665.03;5568978;32;34339;-85
2023/05/03 15:12:51;;;;;;;6.07;5.47;;;;;;;18.69;100.00;100670.53;5570875;32;34736;-86
2023/05/03 15:15:58;;;;;;;6.53;5.82;;;;;;;18.42;100.00;100660.13;5571773;32;34142;-86
2023/05/03 15:19:07;;;;;;;5.62;5.03;;;;;;;18.54;100.00;100669.91;5568060;32;33776;-86
2023/05/03 15:22:15;;;;;;;6.82;5.68;;;;;;;18.70;100.00;100664.16;5573290;32;33869;-86
2023/05/03 15:25:24;;;;;;;5.65;5.18;;;;;;;18.71;100.00;100673.09;5576627;32;34481;-86
2023/05/03 15:28:32;;;;;;;8.13;5.20;;;;;;;18.61;100.00;100672.97;5577683;32;34016;-86
2023/05/03 15:31:40;;;;;;;5.60;5.10;;;;;;;18.42;100.00;100670.87;5568326;32;33684;-86
2023/05/03 15:34:47;;;;;;;5.93;5.40;;;;;;;18.29;100.00;100671.84;5569604;32;33828;-86
2023/05/03 15:37:56;;;;;;;5.82;5.32;;;;;;;18.40;100.00;100664.78;5573656;32;34003;-86
2023/05/03 15:41:05;;;;;;;6.20;5.53;;;;;;;18.46;100.00;100677.72;5569405;32;34062;-86
2023/05/03 15:44:15;;;;;;;6.45;5.80;;;;;;;18.43;100.00;100680.63;5567813;32;34499;-86
2023/05/03 15:47:21;;;;;;;7.45;5.90;;;;;;;18.32;100.00;100681.47;5571486;32;34020;-86
2023/05/03 15:50:30;;;;;;;8.98;6.12;;;;;;;18.42;100.00;100673.56;5571726;32;33747;-86
2023/05/03 15:53:37;;;;;;;5.85;5.22;;;;;;;18.41;100.00;100675.38;5569715;32;33977;-86
2023/05/03 15:56:43;;;;;;;6.53;5.93;;;;;;;18.45;100.00;100682.22;5569046;32;34542;-86
2023/05/03 15:59:52;;;;;;;8.07;6.10;;;;;;;18.27;100.00;100679.16;5568690;32;33868;-86
2023/05/03 16:03:00;;;;;;;7.87;5.85;;;;;;;18.18;100.00;100675.34;5568129;31;33855;-85
2023/05/03 16:06:09;;;;;;;7.30;6.40;;;;;;;18.12;100.00;100675.84;5569275;32;34394;-89
2023/05/03 16:56:25;;;;;;;6.67;6.00;;;;;;;16.78;100.00;100671.28;5587564;31;667855;-86
